sensor_id;sensor_type;location;lat;lon;timestamp;P1;durP1;ratioP1;P2;durP2;ratioP2
11086;SDS011;5597;47.588;9.642;2023-06-04T00:01:04;7.73;;;6.93;;
11086;SDS011;5597;47.588;9.642;2023-06-04T00:03:30;10.17;;;6.97;;
11086;SDS011;5597;47.588;9.642;2023-06-04T00:05:56;7.30;;;6.50;;
11086;SDS011;5597;47.588;9.642;2023-06-04T00:08:21;7.30;;;6.50;;
11086;SDS011;5597;47.588;9.642;2023-06-04T00:10:47;7.43;;;6.70;;
11086;SDS011;5597;47.588;9.642;2023-06-04T00:13:12;6.77;;;6.17;;
11086;SDS011;5597;47.588;9.642;2023-06-04T00:15:38;7.30;;;6.60;;
11086;SDS011;5597;47.588;9.642;2023-06-04T00:18:04;7.10;;;6.40;;
11086;SDS011;5597;47.588;9.642;2023-06-04T00:20:29;7.20;;;6.30;;
11086;SDS011;5597;47.588;9.642;2023-06-04T00:22:55;8.03;;;7.27;;
11086;SDS011;5597;47.588;9.642;2023-06-04T00:25:20;7.47;;;6.77;;
11086;SDS011;5597;47.588;9.642;2023-06-04T00:27:46;8.00;;;7.17;;
11086;SDS011;5597;47.588;9.642;2023-06-04T00:30:11;7.97;;;6.97;;
11086;SDS011;5597;47.588;9.642;2023-06-04T00:32:37;8.00;;;7.20;;
11086;SDS011;5597;47.588;9.642;2023-06-04T00:35:03;8.73;;;6.80;;
11086;SDS011;5597;47.588;9.642;2023-06-04T00:37:29;6.87;;;6.20;;
11086;SDS011;5597;47.588;9.642;2023-06-04T00:39:55;7.27;;;6.53;;
11086;SDS011;5597;47.588;9.642;2023-06-04T00:42:20;6.70;;;6.10;;
11086;SDS011;5597;47.588;9.642;2023-06-04T00:44:46;7.53;;;6.73;;
11086;SDS011;5597;47.588;9.642;2023-06-04T00:47:12;7.30;;;6.60;;
11086;SDS011;5597;47.588;9.642;2023-06-04T00:49:39;7.80;;;6.97;;
11086;SDS011;5597;47.588;9.642;2023-06-04T00:52:06;7.87;;;7.07;;
11086;SDS011;5597;47.588;9.642;2023-06-04T00:54:33;7.13;;;6.43;;
11086;SDS011;5597;47.588;9.642;2023-06-04T00:57:00;7.70;;;7.00;;
11086;SDS011;5597;47.588;9.642;2023-06-04T00:59:25;8.10;;;7.30;;
11086;SDS011;5597;47.588;9.642;2023-06-04T01:01:56;7.50;;;6.70;;
11086;SDS011;5597;47.588;9.642;2023-06-04T01:04:37;7.13;;;6.43;;
11086;SDS011;5597;47.588;9.642;2023-06-04T01:07:25;6.23;;;5.63;;
11086;SDS011;5597;47.588;9.642;2023-06-04T01:09:55;7.43;;;6.63;;
11086;SDS011;5597;47.588;9.642;2023-06-04T01:12:21;7.63;;;6.90;;
11086;SDS011;5597;47.588;9.642;2023-06-04T01:14:47;7.70;;;7.00;;
11086;SDS011;5597;47.588;9.642;2023-06-04T01:22:37;6.50;;;5.90;;
11086;SDS011;5597;47.588;9.642;2023-06-04T01:27:47;7.50;;;6.70;;
11086;SDS011;5597;47.588;9.642;2023-06-04T01:30:14;8.70;;;7.90;;
11086;SDS011;5597;47.588;9.642;2023-06-04T01:32:41;8.33;;;7.53;;
11086;SDS011;5597;47.588;9.642;2023-06-04T01:35:08;8.97;;;7.73;;
11086;SDS011;5597;47.588;9.642;2023-06-04T01:37:35;7.80;;;6.37;;
11086;SDS011;5597;47.588;9.642;2023-06-04T01:40:01;9.30;;;7.57;;
11086;SDS011;5597;47.588;9.642;2023-06-04T01:42:27;7.50;;;6.80;;
11086;SDS011;5597;47.588;9.642;2023-06-04T01:44:52;8.30;;;7.07;;
11086;SDS011;5597;47.588;9.642;2023-06-04T01:47:18;7.43;;;6.73;;
11086;SDS011;5597;47.588;9.642;2023-06-04T01:49:43;7.20;;;6.50;;
11086;SDS011;5597;47.588;9.642;2023-06-04T01:52:09;7.90;;;7.20;;
11086;SDS011;5597;47.588;9.642;2023-06-04T01:54:36;9.13;;;7.60;;
11086;SDS011;5597;47.588;9.642;2023-06-04T01:57:03;9.20;;;7.87;;
11086;SDS011;5597;47.588;9.642;2023-06-04T01:59:28;8.17;;;7.37;;
11086;SDS011;5597;47.588;9.642;2023-06-04T02:01:56;7.80;;;7.03;;
11086;SDS011;5597;47.588;9.642;2023-06-04T02:04:22;7.53;;;6.83;;
11086;SDS011;5597;47.588;9.642;2023-06-04T02:06:48;8.63;;;7.73;;
11086;SDS011;5597;47.588;9.642;2023-06-04T02:09:15;9.17;;;7.87;;
11086;SDS011;5597;47.588;9.642;2023-06-04T02:11:41;8.60;;;7.30;;
11086;SDS011;5597;47.588;9.642;2023-06-04T02:14:06;9.17;;;8.03;;
11086;SDS011;5597;47.588;9.642;2023-06-04T02:16:32;9.93;;;7.70;;
11086;SDS011;5597;47.588;9.642;2023-06-04T02:18:57;11.03;;;8.37;;
11086;SDS011;5597;47.588;9.642;2023-06-04T02:21:24;9.17;;;8.27;;
11086;SDS011;5597;47.588;9.642;2023-06-04T02:23:49;9.20;;;8.23;;
11086;SDS011;5597;47.588;9.642;2023-06-04T02:26:15;9.23;;;8.00;;
11086;SDS011;5597;47.588;9.642;2023-06-04T02:28:41;11.07;;;8.83;;
11086;SDS011;5597;47.588;9.642;2023-06-04T02:31:06;12.40;;;8.50;;
11086;SDS011;5597;47.588;9.642;2023-06-04T02:33:32;9.63;;;8.40;;
11086;SDS011;5597;47.588;9.642;2023-06-04T02:35:57;9.03;;;8.10;;
11086;SDS011;5597;47.588;9.642;2023-06-04T02:38:23;12.50;;;10.57;;
11086;SDS011;5597;47.588;9.642;2023-06-04T02:40:49;9.20;;;8.30;;
11086;SDS011;5597;47.588;9.642;2023-06-04T02:43:14;9.97;;;8.53;;
11086;SDS011;5597;47.588;9.642;2023-06-04T02:45:40;9.47;;;8.17;;
11086;SDS011;5597;47.588;9.642;2023-06-04T02:48:06;8.80;;;7.80;;
11086;SDS011;5597;47.588;9.642;2023-06-04T02:50:31;8.77;;;7.53;;
11086;SDS011;5597;47.588;9.642;2023-06-04T02:52:57;8.13;;;7.33;;
11086;SDS011;5597;47.588;9.642;2023-06-04T02:55:23;8.47;;;7.13;;
11086;SDS011;5597;47.588;9.642;2023-06-04T02:57:48;10.53;;;7.37;;
11086;SDS011;5597;47.588;9.642;2023-06-04T03:00:14;8.80;;;7.83;;
11086;SDS011;5597;47.588;9.642;2023-06-04T03:02:45;8.93;;;8.03;;
11086;SDS011;5597;47.588;9.642;2023-06-04T03:05:13;8.03;;;7.23;;
11086;SDS011;5597;47.588;9.642;2023-06-04T03:07:40;7.90;;;7.10;;
11086;SDS011;5597;47.588;9.642;2023-06-04T03:10:08;8.47;;;7.67;;
11086;SDS011;5597;47.588;9.642;2023-06-04T03:12:34;8.40;;;7.60;;
11086;SDS011;5597;47.588;9.642;2023-06-04T03:15:01;9.43;;;7.90;;
11086;SDS011;5597;47.588;9.642;2023-06-04T03:17:27;8.13;;;7.33;;
11086;SDS011;5597;47.588;9.642;2023-06-04T03:19:53;9.73;;;8.17;;
11086;SDS011;5597;47.588;9.642;2023-06-04T03:22:18;9.13;;;7.63;;
11086;SDS011;5597;47.588;9.642;2023-06-04T03:24:44;8.40;;;7.60;;
11086;SDS011;5597;47.588;9.642;2023-06-04T03:27:10;9.13;;;7.80;;
11086;SDS011;5597;47.588;9.642;2023-06-04T03:29:36;9.37;;;8.47;;
11086;SDS011;5597;47.588;9.642;2023-06-04T03:32:02;8.93;;;8.03;;
11086;SDS011;5597;47.588;9.642;2023-06-04T03:34:28;10.37;;;8.43;;
11086;SDS011;5597;47.588;9.642;2023-06-04T03:36:57;9.50;;;8.60;;
11086;SDS011;5597;47.588;9.642;2023-06-04T03:39:23;9.80;;;8.07;;
11086;SDS011;5597;47.588;9.642;2023-06-04T03:41:49;8.60;;;7.70;;
11086;SDS011;5597;47.588;9.642;2023-06-04T03:44:15;9.03;;;7.80;;
11086;SDS011;5597;47.588;9.642;2023-06-04T03:46:42;10.13;;;8.10;;
11086;SDS011;5597;47.588;9.642;2023-06-04T03:49:09;9.73;;;7.77;;
11086;SDS011;5597;47.588;9.642;2023-06-04T03:51:36;8.63;;;6.80;;
11086;SDS011;5597;47.588;9.642;2023-06-04T03:54:02;8.43;;;7.30;;
11086;SDS011;5597;47.588;9.642;2023-06-04T03:56:28;8.23;;;7.33;;
11086;SDS011;5597;47.588;9.642;2023-06-04T03:58:53;8.33;;;7.30;;
11086;SDS011;5597;47.588;9.642;2023-06-04T04:01:19;8.93;;;7.40;;
11086;SDS011;5597;47.588;9.642;2023-06-04T04:03:45;9.17;;;7.53;;
11086;SDS011;5597;47.588;9.642;2023-06-04T04:06:14;8.10;;;7.27;;
11086;SDS011;5597;47.588;9.642;2023-06-04T04:08:39;9.67;;;7.60;;
11086;SDS011;5597;47.588;9.642;2023-06-04T04:11:07;10.00;;;8.10;;
11086;SDS011;5597;47.588;9.642;2023-06-04T04:13:33;8.83;;;6.90;;
11086;SDS011;5597;47.588;9.642;2023-06-04T04:15:58;8.60;;;7.17;;
11086;SDS011;5597;47.588;9.642;2023-06-04T04:18:24;7.67;;;6.87;;
11086;SDS011;5597;47.588;9.642;2023-06-04T04:20:50;7.80;;;7.00;;
11086;SDS011;5597;47.588;9.642;2023-06-04T04:23:16;6.83;;;6.13;;
11086;SDS011;5597;47.588;9.642;2023-06-04T04:25:42;7.10;;;6.40;;
11086;SDS011;5597;47.588;9.642;2023-06-04T04:28:09;8.00;;;7.20;;
11086;SDS011;5597;47.588;9.642;2023-06-04T04:30:35;7.70;;;7.00;;
11086;SDS011;5597;47.588;9.642;2023-06-04T04:33:01;7.50;;;6.70;;
11086;SDS011;5597;47.588;9.642;2023-06-04T04:35:30;7.20;;;6.50;;
11086;SDS011;5597;47.588;9.642;2023-06-04T04:37:57;7.87;;;6.70;;
11086;SDS011;5597;47.588;9.642;2023-06-04T04:40:23;7.63;;;6.93;;
11086;SDS011;5597;47.588;9.642;2023-06-04T04:42:49;9.47;;;7.87;;
11086;SDS011;5597;47.588;9.642;2023-06-04T04:45:14;7.90;;;6.57;;
11086;SDS011;5597;47.588;9.642;2023-06-04T04:47:40;8.43;;;7.57;;
11086;SDS011;5597;47.588;9.642;2023-06-04T04:50:05;8.47;;;7.63;;
11086;SDS011;5597;47.588;9.642;2023-06-04T04:52:31;8.20;;;7.40;;
11086;SDS011;5597;47.588;9.642;2023-06-04T04:54:57;8.60;;;7.17;;
11086;SDS011;5597;47.588;9.642;2023-06-04T04:57:25;8.23;;;7.00;;
11086;SDS011;5597;47.588;9.642;2023-06-04T04:59:51;8.03;;;7.20;;
11086;SDS011;5597;47.588;9.642;2023-06-04T05:02:17;7.87;;;6.80;;
11086;SDS011;5597;47.588;9.642;2023-06-04T05:04:42;7.43;;;6.70;;
11086;SDS011;5597;47.588;9.642;2023-06-04T05:07:08;7.70;;;6.90;;
11086;SDS011;5597;47.588;9.642;2023-06-04T05:09:33;8.73;;;7.00;;
11086;SDS011;5597;47.588;9.642;2023-06-04T05:11:59;6.73;;;6.13;;
11086;SDS011;5597;47.588;9.642;2023-06-04T05:14:25;7.30;;;6.63;;
11086;SDS011;5597;47.588;9.642;2023-06-04T05:16:51;7.90;;;6.50;;
11086;SDS011;5597;47.588;9.642;2023-06-04T05:19:16;7.73;;;6.50;;
11086;SDS011;5597;47.588;9.642;2023-06-04T05:21:42;7.43;;;6.70;;
11086;SDS011;5597;47.588;9.642;2023-06-04T05:24:09;8.03;;;6.30;;
11086;SDS011;5597;47.588;9.642;2023-06-04T05:26:35;7.23;;;6.53;;
11086;SDS011;5597;47.588;9.642;2023-06-04T05:29:01;7.80;;;7.00;;
11086;SDS011;5597;47.588;9.642;2023-06-04T05:31:29;7.47;;;6.73;;
11086;SDS011;5597;47.588;9.642;2023-06-04T05:33:58;8.10;;;6.67;;
11086;SDS011;5597;47.588;9.642;2023-06-04T05:36:26;6.97;;;6.27;;
11086;SDS011;5597;47.588;9.642;2023-06-04T05:38:52;7.57;;;6.77;;
11086;SDS011;5597;47.588;9.642;2023-06-04T05:41:22;7.50;;;6.73;;
11086;SDS011;5597;47.588;9.642;2023-06-04T05:43:48;8.50;;;6.57;;
11086;SDS011;5597;47.588;9.642;2023-06-04T05:46:14;7.07;;;6.33;;
11086;SDS011;5597;47.588;9.642;2023-06-04T05:48:40;7.23;;;6.17;;
11086;SDS011;5597;47.588;9.642;2023-06-04T05:51:06;7.37;;;6.67;;
11086;SDS011;5597;47.588;9.642;2023-06-04T05:53:32;8.20;;;7.40;;
11086;SDS011;5597;47.588;9.642;2023-06-04T05:55:57;9.83;;;7.47;;
11086;SDS011;5597;47.588;9.642;2023-06-04T05:58:23;8.17;;;7.37;;
11086;SDS011;5597;47.588;9.642;2023-06-04T06:00:49;8.03;;;6.67;;
11086;SDS011;5597;47.588;9.642;2023-06-04T06:03:15;9.43;;;7.00;;
11086;SDS011;5597;47.588;9.642;2023-06-04T06:05:41;8.13;;;6.80;;
11086;SDS011;5597;47.588;9.642;2023-06-04T06:08:07;8.37;;;6.23;;
11086;SDS011;5597;47.588;9.642;2023-06-04T06:10:33;7.13;;;6.43;;
11086;SDS011;5597;47.588;9.642;2023-06-04T06:12:59;7.70;;;6.90;;
11086;SDS011;5597;47.588;9.642;2023-06-04T06:15:25;8.27;;;7.27;;
11086;SDS011;5597;47.588;9.642;2023-06-04T06:17:51;7.87;;;6.67;;
11086;SDS011;5597;47.588;9.642;2023-06-04T06:20:17;7.27;;;6.57;;
11086;SDS011;5597;47.588;9.642;2023-06-04T06:22:43;7.77;;;6.90;;
11086;SDS011;5597;47.588;9.642;2023-06-04T06:25:09;7.57;;;6.80;;
11086;SDS011;5597;47.588;9.642;2023-06-04T06:27:38;7.63;;;6.93;;
11086;SDS011;5597;47.588;9.642;2023-06-04T06:30:05;8.57;;;7.00;;
11086;SDS011;5597;47.588;9.642;2023-06-04T06:32:31;7.40;;;6.67;;
11086;SDS011;5597;47.588;9.642;2023-06-04T06:34:57;6.70;;;6.00;;
11086;SDS011;5597;47.588;9.642;2023-06-04T06:37:23;7.07;;;6.43;;
11086;SDS011;5597;47.588;9.642;2023-06-04T06:39:48;7.00;;;6.30;;
11086;SDS011;5597;47.588;9.642;2023-06-04T06:42:14;7.00;;;6.20;;
11086;SDS011;5597;47.588;9.642;2023-06-04T06:44:42;6.97;;;5.97;;
11086;SDS011;5597;47.588;9.642;2023-06-04T06:47:08;6.33;;;5.77;;
11086;SDS011;5597;47.588;9.642;2023-06-04T06:49:35;6.57;;;5.70;;
11086;SDS011;5597;47.588;9.642;2023-06-04T06:52:01;6.17;;;5.57;;
11086;SDS011;5597;47.588;9.642;2023-06-04T06:54:26;7.30;;;6.10;;
11086;SDS011;5597;47.588;9.642;2023-06-04T06:56:52;7.20;;;5.60;;
11086;SDS011;5597;47.588;9.642;2023-06-04T06:59:17;7.47;;;5.10;;
11086;SDS011;5597;47.588;9.642;2023-06-04T07:01:43;5.83;;;5.23;;
11086;SDS011;5597;47.588;9.642;2023-06-04T07:04:09;6.27;;;5.23;;
11086;SDS011;5597;47.588;9.642;2023-06-04T07:06:35;5.70;;;5.20;;
11086;SDS011;5597;47.588;9.642;2023-06-04T07:09:01;5.73;;;5.23;;
11086;SDS011;5597;47.588;9.642;2023-06-04T07:11:28;5.80;;;5.30;;
11086;SDS011;5597;47.588;9.642;2023-06-04T07:13:53;5.20;;;4.70;;
11086;SDS011;5597;47.588;9.642;2023-06-04T07:16:19;6.13;;;5.53;;
11086;SDS011;5597;47.588;9.642;2023-06-04T07:18:47;6.00;;;5.40;;
11086;SDS011;5597;47.588;9.642;2023-06-04T07:21:14;7.53;;;5.73;;
11086;SDS011;5597;47.588;9.642;2023-06-04T07:23:40;6.00;;;5.43;;
11086;SDS011;5597;47.588;9.642;2023-06-04T07:26:05;6.53;;;5.60;;
11086;SDS011;5597;47.588;9.642;2023-06-04T07:28:31;6.33;;;5.73;;
11086;SDS011;5597;47.588;9.642;2023-06-04T07:30:57;10.23;;;5.53;;
11086;SDS011;5597;47.588;9.642;2023-06-04T07:33:23;5.93;;;5.40;;
11086;SDS011;5597;47.588;9.642;2023-06-04T07:35:49;6.73;;;5.20;;
11086;SDS011;5597;47.588;9.642;2023-06-04T07:38:15;9.17;;;5.87;;
11086;SDS011;5597;47.588;9.642;2023-06-04T07:40:41;5.60;;;5.10;;
11086;SDS011;5597;47.588;9.642;2023-06-04T07:43:07;5.93;;;5.33;;
11086;SDS011;5597;47.588;9.642;2023-06-04T07:45:32;5.30;;;4.80;;
11086;SDS011;5597;47.588;9.642;2023-06-04T07:47:58;6.60;;;5.00;;
11086;SDS011;5597;47.588;9.642;2023-06-04T07:50:24;5.63;;;4.80;;
11086;SDS011;5597;47.588;9.642;2023-06-04T07:52:50;5.20;;;4.73;;
11086;SDS011;5597;47.588;9.642;2023-06-04T07:55:16;5.50;;;5.00;;
11086;SDS011;5597;47.588;9.642;2023-06-04T07:57:42;7.93;;;7.17;;
11086;SDS011;5597;47.588;9.642;2023-06-04T08:00:07;8.30;;;6.33;;
11086;SDS011;5597;47.588;9.642;2023-06-04T08:02:34;6.80;;;6.20;;
11086;SDS011;5597;47.588;9.642;2023-06-04T08:05:00;7.93;;;6.43;;
11086;SDS011;5597;47.588;9.642;2023-06-04T08:07:27;7.90;;;7.10;;
11086;SDS011;5597;47.588;9.642;2023-06-04T08:09:52;8.90;;;6.70;;
11086;SDS011;5597;47.588;9.642;2023-06-04T08:12:18;7.90;;;6.93;;
11086;SDS011;5597;47.588;9.642;2023-06-04T08:14:44;6.60;;;6.00;;
11086;SDS011;5597;47.588;9.642;2023-06-04T08:17:10;6.40;;;5.80;;
11086;SDS011;5597;47.588;9.642;2023-06-04T08:19:35;6.93;;;6.13;;
11086;SDS011;5597;47.588;9.642;2023-06-04T08:22:01;8.27;;;7.17;;
11086;SDS011;5597;47.588;9.642;2023-06-04T08:24:27;6.97;;;6.27;;
11086;SDS011;5597;47.588;9.642;2023-06-04T08:26:53;8.20;;;7.10;;
11086;SDS011;5597;47.588;9.642;2023-06-04T08:29:18;7.40;;;6.67;;
11086;SDS011;5597;47.588;9.642;2023-06-04T08:31:44;6.13;;;5.63;;
11086;SDS011;5597;47.588;9.642;2023-06-04T08:34:09;7.73;;;6.50;;
11086;SDS011;5597;47.588;9.642;2023-06-04T08:36:35;7.13;;;6.43;;
11086;SDS011;5597;47.588;9.642;2023-06-04T08:39:01;7.00;;;6.30;;
11086;SDS011;5597;47.588;9.642;2023-06-04T08:41:30;6.87;;;6.20;;
11086;SDS011;5597;47.588;9.642;2023-06-04T08:44:03;7.27;;;6.57;;
11086;SDS011;5597;47.588;9.642;2023-06-04T08:46:31;6.77;;;6.07;;
11086;SDS011;5597;47.588;9.642;2023-06-04T08:48:59;8.70;;;6.80;;
11086;SDS011;5597;47.588;9.642;2023-06-04T08:51:29;8.00;;;7.20;;
11086;SDS011;5597;47.588;9.642;2023-06-04T08:53:58;6.33;;;5.77;;
11086;SDS011;5597;47.588;9.642;2023-06-04T08:56:24;6.43;;;5.83;;
11086;SDS011;5597;47.588;9.642;2023-06-04T08:58:51;7.57;;;6.90;;
11086;SDS011;5597;47.588;9.642;2023-06-04T09:01:18;7.10;;;6.40;;
11086;SDS011;5597;47.588;9.642;2023-06-04T09:03:43;6.70;;;6.07;;
11086;SDS011;5597;47.588;9.642;2023-06-04T09:06:10;6.63;;;5.93;;
11086;SDS011;5597;47.588;9.642;2023-06-04T09:08:37;7.87;;;6.97;;
11086;SDS011;5597;47.588;9.642;2023-06-04T09:11:05;7.53;;;6.63;;
11086;SDS011;5597;47.588;9.642;2023-06-04T09:13:33;7.00;;;6.30;;
11086;SDS011;5597;47.588;9.642;2023-06-04T09:16:03;7.40;;;6.63;;
11086;SDS011;5597;47.588;9.642;2023-06-04T09:18:30;6.60;;;6.00;;
11086;SDS011;5597;47.588;9.642;2023-06-04T09:21:06;7.57;;;6.77;;
11086;SDS011;5597;47.588;9.642;2023-06-04T09:26:09;7.27;;;6.57;;
11086;SDS011;5597;47.588;9.642;2023-06-04T09:28:35;7.70;;;6.37;;
11086;SDS011;5597;47.588;9.642;2023-06-04T09:31:07;7.70;;;6.93;;
11086;SDS011;5597;47.588;9.642;2023-06-04T09:33:50;7.23;;;6.53;;
11086;SDS011;5597;47.588;9.642;2023-06-04T09:36:16;8.43;;;7.20;;
11086;SDS011;5597;47.588;9.642;2023-06-04T09:38:41;8.60;;;7.70;;
11086;SDS011;5597;47.588;9.642;2023-06-04T09:41:14;6.67;;;6.07;;
11086;SDS011;5597;47.588;9.642;2023-06-04T09:43:41;6.47;;;5.73;;
11086;SDS011;5597;47.588;9.642;2023-06-04T09:46:13;6.70;;;6.10;;
11086;SDS011;5597;47.588;9.642;2023-06-04T09:48:41;7.50;;;6.80;;
11086;SDS011;5597;47.588;9.642;2023-06-04T09:51:14;7.57;;;6.90;;
11086;SDS011;5597;47.588;9.642;2023-06-04T09:53:40;7.87;;;7.17;;
11086;SDS011;5597;47.588;9.642;2023-06-04T09:56:06;7.73;;;6.90;;
11086;SDS011;5597;47.588;9.642;2023-06-04T09:58:33;6.80;;;6.20;;
11086;SDS011;5597;47.588;9.642;2023-06-04T10:01:03;9.33;;;7.27;;
11086;SDS011;5597;47.588;9.642;2023-06-04T10:03:33;8.87;;;7.90;;
11086;SDS011;5597;47.588;9.642;2023-06-04T10:06:02;7.20;;;6.50;;
11086;SDS011;5597;47.588;9.642;2023-06-04T10:08:29;6.57;;;5.83;;
11086;SDS011;5597;47.588;9.642;2023-06-04T10:10:58;6.70;;;6.10;;
11086;SDS011;5597;47.588;9.642;2023-06-04T10:13:26;7.57;;;6.77;;
11086;SDS011;5597;47.588;9.642;2023-06-04T10:15:56;6.67;;;5.80;;
11086;SDS011;5597;47.588;9.642;2023-06-04T10:18:23;6.03;;;5.53;;
11086;SDS011;5597;47.588;9.642;2023-06-04T10:20:50;5.80;;;5.30;;
11086;SDS011;5597;47.588;9.642;2023-06-04T10:23:20;7.33;;;5.63;;
11086;SDS011;5597;47.588;9.642;2023-06-04T10:25:47;7.33;;;5.63;;
11086;SDS011;5597;47.588;9.642;2023-06-04T10:28:15;6.30;;;5.30;;
11086;SDS011;5597;47.588;9.642;2023-06-04T10:30:41;5.63;;;5.13;;
11086;SDS011;5597;47.588;9.642;2023-06-04T10:33:07;5.37;;;4.87;;
11086;SDS011;5597;47.588;9.642;2023-06-04T10:35:34;5.43;;;4.90;;
11086;SDS011;5597;47.588;9.642;2023-06-04T10:38:07;7.30;;;5.47;;
11086;SDS011;5597;47.588;9.642;2023-06-04T10:40:38;7.23;;;5.30;;
11086;SDS011;5597;47.588;9.642;2023-06-04T10:43:04;5.63;;;5.13;;
11086;SDS011;5597;47.588;9.642;2023-06-04T10:45:35;5.53;;;4.30;;
11086;SDS011;5597;47.588;9.642;2023-06-04T10:48:08;4.90;;;4.50;;
11086;SDS011;5597;47.588;9.642;2023-06-04T10:50:36;4.90;;;4.50;;
11086;SDS011;5597;47.588;9.642;2023-06-04T10:53:16;5.80;;;5.00;;
11086;SDS011;5597;47.588;9.642;2023-06-04T10:55:44;5.37;;;4.87;;
11086;SDS011;5597;47.588;9.642;2023-06-04T10:58:11;5.20;;;4.70;;
11086;SDS011;5597;47.588;9.642;2023-06-04T11:00:37;5.00;;;4.50;;
11086;SDS011;5597;47.588;9.642;2023-06-04T11:03:05;5.33;;;4.83;;
11086;SDS011;5597;47.588;9.642;2023-06-04T11:05:37;6.83;;;4.50;;
11086;SDS011;5597;47.588;9.642;2023-06-04T11:08:04;4.77;;;4.37;;
11086;SDS011;5597;47.588;9.642;2023-06-04T11:10:34;6.00;;;4.37;;
11086;SDS011;5597;47.588;9.642;2023-06-04T11:13:02;5.40;;;4.60;;
11086;SDS011;5597;47.588;9.642;2023-06-04T11:15:37;5.00;;;3.97;;
11086;SDS011;5597;47.588;9.642;2023-06-04T11:18:04;4.13;;;3.73;;
11086;SDS011;5597;47.588;9.642;2023-06-04T11:20:30;5.17;;;4.20;;
11086;SDS011;5597;47.588;9.642;2023-06-04T11:22:56;4.70;;;3.90;;
11086;SDS011;5597;47.588;9.642;2023-06-04T11:25:26;3.87;;;3.47;;
11086;SDS011;5597;47.588;9.642;2023-06-04T11:27:54;4.20;;;3.80;;
11086;SDS011;5597;47.588;9.642;2023-06-04T11:30:23;4.53;;;4.13;;
11086;SDS011;5597;47.588;9.642;2023-06-04T11:32:49;4.40;;;3.80;;
11086;SDS011;5597;47.588;9.642;2023-06-04T11:35:15;5.73;;;4.00;;
11086;SDS011;5597;47.588;9.642;2023-06-04T11:37:41;5.60;;;4.17;;
11086;SDS011;5597;47.588;9.642;2023-06-04T11:40:16;4.63;;;4.23;;
11086;SDS011;5597;47.588;9.642;2023-06-04T11:42:43;4.40;;;3.70;;
11086;SDS011;5597;47.588;9.642;2023-06-04T11:45:10;4.57;;;4.10;;
11086;SDS011;5597;47.588;9.642;2023-06-04T11:47:46;4.50;;;4.10;;
11086;SDS011;5597;47.588;9.642;2023-06-04T11:50:16;4.80;;;4.30;;
11086;SDS011;5597;47.588;9.642;2023-06-04T11:52:41;4.60;;;4.13;;
11086;SDS011;5597;47.588;9.642;2023-06-04T11:55:08;4.40;;;4.00;;
11086;SDS011;5597;47.588;9.642;2023-06-04T11:57:35;4.47;;;3.97;;
11086;SDS011;5597;47.588;9.642;2023-06-04T12:00:02;4.43;;;3.80;;
11086;SDS011;5597;47.588;9.642;2023-06-04T12:02:30;4.70;;;4.07;;
11086;SDS011;5597;47.588;9.642;2023-06-04T12:04:55;4.97;;;4.20;;
11086;SDS011;5597;47.588;9.642;2023-06-04T12:07:21;4.30;;;3.90;;
11086;SDS011;5597;47.588;9.642;2023-06-04T12:09:49;7.87;;;4.50;;
11086;SDS011;5597;47.588;9.642;2023-06-04T12:12:15;6.07;;;4.20;;
11086;SDS011;5597;47.588;9.642;2023-06-04T12:14:46;4.10;;;3.70;;
11086;SDS011;5597;47.588;9.642;2023-06-04T12:17:12;4.90;;;4.40;;
11086;SDS011;5597;47.588;9.642;2023-06-04T12:19:47;5.70;;;4.00;;
11086;SDS011;5597;47.588;9.642;2023-06-04T12:22:16;5.07;;;4.20;;
11086;SDS011;5597;47.588;9.642;2023-06-04T12:24:52;7.40;;;4.53;;
11086;SDS011;5597;47.588;9.642;2023-06-04T12:27:20;4.93;;;4.43;;
11086;SDS011;5597;47.588;9.642;2023-06-04T12:29:54;6.53;;;4.57;;
11086;SDS011;5597;47.588;9.642;2023-06-04T12:32:21;4.67;;;4.00;;
11086;SDS011;5597;47.588;9.642;2023-06-04T12:34:47;5.97;;;4.43;;
11086;SDS011;5597;47.588;9.642;2023-06-04T12:37:13;4.67;;;4.27;;
11086;SDS011;5597;47.588;9.642;2023-06-04T12:39:39;6.83;;;4.30;;
11086;SDS011;5597;47.588;9.642;2023-06-04T12:42:05;4.90;;;4.40;;
11086;SDS011;5597;47.588;9.642;2023-06-04T12:44:31;4.50;;;4.10;;
11086;SDS011;5597;47.588;9.642;2023-06-04T12:46:57;5.20;;;3.97;;
11086;SDS011;5597;47.588;9.642;2023-06-04T12:49:23;4.93;;;4.43;;
11086;SDS011;5597;47.588;9.642;2023-06-04T12:51:48;4.30;;;3.90;;
11086;SDS011;5597;47.588;9.642;2023-06-04T12:54:14;4.70;;;4.30;;
11086;SDS011;5597;47.588;9.642;2023-06-04T12:56:40;6.33;;;4.50;;
11086;SDS011;5597;47.588;9.642;2023-06-04T12:59:06;5.63;;;4.47;;
11086;SDS011;5597;47.588;9.642;2023-06-04T13:01:32;5.00;;;4.50;;
11086;SDS011;5597;47.588;9.642;2023-06-04T13:03:58;4.57;;;4.17;;
11086;SDS011;5597;47.588;9.642;2023-06-04T13:06:23;5.43;;;4.37;;
11086;SDS011;5597;47.588;9.642;2023-06-04T13:08:49;5.10;;;4.37;;
11086;SDS011;5597;47.588;9.642;2023-06-04T13:11:14;4.50;;;4.10;;
11086;SDS011;5597;47.588;9.642;2023-06-04T13:13:40;5.80;;;3.90;;
11086;SDS011;5597;47.588;9.642;2023-06-04T13:16:07;4.93;;;4.43;;
11086;SDS011;5597;47.588;9.642;2023-06-04T13:18:32;5.33;;;4.30;;
11086;SDS011;5597;47.588;9.642;2023-06-04T13:20:58;4.50;;;4.10;;
11086;SDS011;5597;47.588;9.642;2023-06-04T13:23:23;5.00;;;4.47;;
11086;SDS011;5597;47.588;9.642;2023-06-04T13:25:49;4.70;;;4.30;;
11086;SDS011;5597;47.588;9.642;2023-06-04T13:28:15;4.43;;;4.03;;
11086;SDS011;5597;47.588;9.642;2023-06-04T13:30:42;4.83;;;4.20;;
11086;SDS011;5597;47.588;9.642;2023-06-04T13:33:08;4.73;;;4.27;;
11086;SDS011;5597;47.588;9.642;2023-06-04T13:35:33;4.90;;;4.50;;
11086;SDS011;5597;47.588;9.642;2023-06-04T13:37:59;4.63;;;4.07;;
11086;SDS011;5597;47.588;9.642;2023-06-04T13:40:25;4.87;;;3.90;;
11086;SDS011;5597;47.588;9.642;2023-06-04T13:42:51;4.30;;;3.90;;
11086;SDS011;5597;47.588;9.642;2023-06-04T13:45:16;4.47;;;4.07;;
11086;SDS011;5597;47.588;9.642;2023-06-04T13:47:45;4.50;;;4.10;;
11086;SDS011;5597;47.588;9.642;2023-06-04T13:50:11;4.67;;;4.20;;
11086;SDS011;5597;47.588;9.642;2023-06-04T13:52:37;4.10;;;3.70;;
11086;SDS011;5597;47.588;9.642;2023-06-04T13:55:03;4.93;;;4.00;;
11086;SDS011;5597;47.588;9.642;2023-06-04T13:57:29;4.43;;;4.03;;
11086;SDS011;5597;47.588;9.642;2023-06-04T13:59:54;5.07;;;3.97;;
11086;SDS011;5597;47.588;9.642;2023-06-04T14:02:20;4.80;;;4.40;;
11086;SDS011;5597;47.588;9.642;2023-06-04T14:04:46;4.57;;;4.13;;
11086;SDS011;5597;47.588;9.642;2023-06-04T14:07:11;5.33;;;4.03;;
11086;SDS011;5597;47.588;9.642;2023-06-04T14:09:37;4.37;;;3.83;;
11086;SDS011;5597;47.588;9.642;2023-06-04T14:12:03;4.80;;;4.00;;
11086;SDS011;5597;47.588;9.642;2023-06-04T14:14:29;4.73;;;4.10;;
11086;SDS011;5597;47.588;9.642;2023-06-04T14:17:01;4.57;;;4.17;;
11086;SDS011;5597;47.588;9.642;2023-06-04T14:19:31;4.40;;;4.00;;
11086;SDS011;5597;47.588;9.642;2023-06-04T14:21:57;5.00;;;4.17;;
11086;SDS011;5597;47.588;9.642;2023-06-04T14:24:23;5.13;;;4.07;;
11086;SDS011;5597;47.588;9.642;2023-06-04T14:26:48;4.43;;;3.97;;
11086;SDS011;5597;47.588;9.642;2023-06-04T14:29:14;4.50;;;4.10;;
11086;SDS011;5597;47.588;9.642;2023-06-04T14:31:40;6.73;;;4.70;;
11086;SDS011;5597;47.588;9.642;2023-06-04T14:34:06;4.50;;;3.97;;
11086;SDS011;5597;47.588;9.642;2023-06-04T14:36:32;4.97;;;4.57;;
11086;SDS011;5597;47.588;9.642;2023-06-04T14:38:57;4.53;;;4.13;;
11086;SDS011;5597;47.588;9.642;2023-06-04T14:41:23;4.57;;;4.13;;
11086;SDS011;5597;47.588;9.642;2023-06-04T14:43:49;5.00;;;3.97;;
11086;SDS011;5597;47.588;9.642;2023-06-04T14:46:14;4.33;;;3.73;;
11086;SDS011;5597;47.588;9.642;2023-06-04T14:48:41;4.80;;;4.30;;
11086;SDS011;5597;47.588;9.642;2023-06-04T14:51:06;4.40;;;4.00;;
11086;SDS011;5597;47.588;9.642;2023-06-04T14:53:32;4.57;;;4.17;;
11086;SDS011;5597;47.588;9.642;2023-06-04T14:55:57;4.43;;;4.03;;
11086;SDS011;5597;47.588;9.642;2023-06-04T14:58:23;5.33;;;4.33;;
11086;SDS011;5597;47.588;9.642;2023-06-04T15:00:48;4.67;;;4.20;;
11086;SDS011;5597;47.588;9.642;2023-06-04T15:03:14;5.23;;;4.47;;
11086;SDS011;5597;47.588;9.642;2023-06-04T15:05:39;4.60;;;4.20;;
11086;SDS011;5597;47.588;9.642;2023-06-04T15:08:05;4.93;;;4.53;;